Time;durP1;ratioP1;P1;durP2;ratioP2;P2;SDS_P1;SDS_P2;PMS_P1;PMS_P2;Temp;Humidity;BMP_temperature;BMP_pressure;BME280_temperature;BME280_humidity;BME280_pressure;Samples;Min_cycle;Max_cycle;Signal;HPM_P1;HPM_P2
2023/06/11 00:00:09;;;;;;;11.90;7.55;;;18.50;99.90;;;;;;5053881;28;20040;-55
2023/06/11 00:02:36;;;;;;;11.30;6.93;;;18.50;99.90;;;;;;5012327;28;20172;-56
2023/06/11 00:05:07;;;;;;;12.85;7.53;;;18.50;99.90;;;;;;5014564;28;20055;-55
2023/06/11 00:07:42;;;;;;;17.33;8.00;;;18.50;99.90;;;;;;5026053;28;20052;-55
2023/06/11 00:10:08;;;;;;;16.80;7.55;;;18.40;99.90;;;;;;5011078;28;20040;-55
2023/06/11 00:12:34;;;;;;;14.32;8.00;;;18.40;99.90;;;;;;5037011;28;20055;-56
2023/06/11 00:15:03;;;;;;;15.60;8.00;;;18.40;99.90;;;;;;5031738;28;20048;-55
2023/06/11 00:17:32;;;;;;;13.23;8.20;;;18.40;99.90;;;;;;5008613;28;20037;-55
2023/06/11 00:19:58;;;;;;;11.98;6.70;;;18.40;99.90;;;;;;5022839;28;20040;-56
2023/06/11 00:22:26;;;;;;;14.02;7.05;;;18.40;99.90;;;;;;5031759;28;20045;-55
2023/06/11 00:24:52;;;;;;;12.50;6.78;;;18.40;99.90;;;;;;5012287;28;20108;-55
2023/06/11 00:27:18;;;;;;;11.50;7.38;;;18.30;99.90;;;;;;5028197;28;20512;-55
2023/06/11 00:29:43;;;;;;;19.10;10.55;;;18.30;99.90;;;;;;5015906;28;20124;-55
2023/06/11 00:32:09;;;;;;;13.23;7.45;;;18.30;99.90;;;;;;5000914;28;20047;-56
2023/06/11 00:34:35;;;;;;;15.48;9.48;;;18.30;99.90;;;;;;5036560;28;20072;-56
2023/06/11 00:37:01;;;;;;;15.68;8.70;;;18.30;99.90;;;;;;5014112;28;20284;-55
2023/06/11 00:39:26;;;;;;;12.02;7.90;;;18.30;99.90;;;;;;5019900;28;20049;-56
2023/06/11 00:41:53;;;;;;;15.25;8.93;;;18.30;99.90;;;;;;5030895;28;20043;-54
2023/06/11 00:44:21;;;;;;;20.35;8.80;;;18.30;99.90;;;;;;5022429;28;20041;-56
2023/06/11 00:46:51;;;;;;;13.95;9.80;;;18.30;99.90;;;;;;5029829;28;20048;-55
2023/06/11 00:49:17;;;;;;;14.98;9.02;;;18.20;99.90;;;;;;5049325;28;20120;-54
2023/06/11 00:51:45;;;;;;;13.02;9.05;;;18.20;99.90;;;;;;5026124;28;20053;-57
2023/06/11 00:54:12;;;;;;;17.33;9.93;;;18.20;99.90;;;;;;5006179;28;20064;-55
2023/06/11 00:56:41;;;;;;;15.80;10.02;;;18.20;99.90;;;;;;5027277;28;20179;-55
2023/06/11 00:59:07;;;;;;;15.60;8.48;;;18.20;99.90;;;;;;5028654;28;20110;-55
2023/06/11 01:01:41;;;;;;;17.45;9.77;;;18.20;99.90;;;;;;5010808;28;20045;-55
2023/06/11 01:04:13;;;;;;;14.63;9.32;;;18.20;99.90;;;;;;5028938;28;20040;-56
2023/06/11 01:06:46;;;;;;;12.80;9.02;;;18.10;99.90;;;;;;5019672;28;20033;-54
2023/06/11 01:09:12;;;;;;;15.45;8.82;;;18.10;99.90;;;;;;5035177;28;20124;-56
2023/06/11 01:11:38;;;;;;;13.63;9.55;;;18.00;99.90;;;;;;5013384;28;20329;-54
2023/06/11 01:14:06;;;;;;;17.63;10.15;;;18.10;99.90;;;;;;5031878;28;20509;-55
2023/06/11 01:16:38;;;;;;;15.20;9.93;;;18.10;99.90;;;;;;5027100;28;20257;-55
2023/06/11 01:19:28;;;;;;;11.85;8.63;;;18.10;99.90;;;;;;5012675;28;20507;-57
2023/06/11 01:21:59;;;;;;;15.25;9.88;;;18.00;99.90;;;;;;5029248;28;20055;-56
2023/06/11 01:24:53;;;;;;;14.80;10.10;;;18.00;99.90;;;;;;5035617;28;20048;-56
2023/06/11 01:27:26;;;;;;;13.90;9.02;;;18.10;99.90;;;;;;5048104;23;20045;-60
2023/06/11 01:29:54;;;;;;;10.75;8.02;;;18.00;99.90;;;;;;5032385;28;20045;-60
2023/06/11 01:32:25;;;;;;;12.75;9.88;;;17.90;99.90;;;;;;5034314;28;20063;-59
2023/06/11 01:35:00;;;;;;;19.48;10.32;;;17.90;99.90;;;;;;5047321;28;20071;-60
2023/06/11 01:37:29;;;;;;;12.90;8.73;;;17.90;99.90;;;;;;5074732;28;20036;-60
2023/06/11 01:39:55;;;;;;;15.15;10.45;;;17.80;99.90;;;;;;5062635;28;20036;-59
2023/06/11 01:42:21;;;;;;;15.15;11.10;;;17.80;99.90;;;;;;5049055;28;20049;-60
2023/06/11 01:44:46;;;;;;;18.60;10.10;;;17.80;99.90;;;;;;5065996;28;20080;-59
2023/06/11 01:47:12;;;;;;;15.27;10.70;;;17.80;99.90;;;;;;5062923;28;20106;-60
2023/06/11 01:49:38;;;;;;;13.23;9.45;;;17.80;99.90;;;;;;5060734;28;21324;-60
2023/06/11 01:52:05;;;;;;;14.35;10.65;;;17.70;99.90;;;;;;5048417;28;20040;-60
2023/06/11 01:54:31;;;;;;;14.15;10.50;;;17.70;99.90;;;;;;5032765;28;20075;-60
2023/06/11 01:56:56;;;;;;;13.02;9.57;;;17.70;99.90;;;;;;5069728;28;20095;-59
2023/06/11 01:59:22;;;;;;;12.50;9.13;;;17.70;99.90;;;;;;5062039;28;20096;-60
2023/06/11 02:01:53;;;;;;;13.82;9.80;;;17.70;99.90;;;;;;5070167;28;20028;-60
2023/06/11 02:04:22;;;;;;;14.23;10.23;;;17.70;99.90;;;;;;5065498;28;20052;-60
2023/06/11 02:06:51;;;;;;;15.23;9.73;;;17.70;99.90;;;;;;5056427;28;20070;-60
2023/06/11 02:09:17;;;;;;;15.02;10.07;;;17.70;99.90;;;;;;5048661;28;20068;-60
2023/06/11 02:11:43;;;;;;;13.70;9.88;;;17.70;99.90;;;;;;5075436;28;20548;-60
2023/06/11 02:14:09;;;;;;;10.02;8.02;;;17.70;99.90;;;;;;5073492;28;20051;-60
2023/06/11 02:16:35;;;;;;;12.13;9.07;;;17.70;99.90;;;;;;5067692;28;20036;-60
2023/06/11 02:19:00;;;;;;;15.55;10.40;;;17.70;99.90;;;;;;5051049;28;20032;-59
2023/06/11 02:21:26;;;;;;;12.45;9.43;;;17.60;99.90;;;;;;5048307;28;20067;-60
2023/06/11 02:23:52;;;;;;;14.75;9.80;;;17.60;99.90;;;;;;5069900;28;20033;-61
2023/06/11 02:26:17;;;;;;;13.13;9.82;;;17.60;99.90;;;;;;5070405;28;20040;-58
2023/06/11 02:28:43;;;;;;;13.63;9.88;;;17.60;99.90;;;;;;5049429;28;20048;-60
2023/06/11 02:31:09;;;;;;;17.65;10.00;;;17.60;99.90;;;;;;5066772;28;20040;-59
2023/06/11 02:33:35;;;;;;;12.63;10.15;;;17.60;99.90;;;;;;5063119;28;20119;-60
2023/06/11 02:36:00;;;;;;;11.57;10.30;;;17.60;99.90;;;;;;5036202;28;20051;-59
2023/06/11 02:38:26;;;;;;;13.05;10.38;;;17.60;99.90;;;;;;5068153;28;20434;-60
2023/06/11 02:40:52;;;;;;;12.07;10.77;;;17.60;99.90;;;;;;5041529;28;20098;-60
2023/06/11 02:43:17;;;;;;;14.88;9.85;;;17.50;99.90;;;;;;5035068;28;21914;-59
2023/06/11 02:45:43;;;;;;;14.63;10.55;;;17.50;99.90;;;;;;5048840;28;20281;-60
2023/06/11 02:48:09;;;;;;;11.82;9.40;;;17.50;99.90;;;;;;5052789;28;20499;-60
2023/06/11 02:50:34;;;;;;;14.52;10.38;;;17.50;99.90;;;;;;5048593;28;20155;-61
2023/06/11 02:53:00;;;;;;;13.32;10.93;;;17.50;99.90;;;;;;5044645;28;20040;-60
2023/06/11 02:55:26;;;;;;;14.13;11.02;;;17.50;99.90;;;;;;5065998;28;20036;-58
2023/06/11 02:57:51;;;;;;;16.13;11.13;;;17.50;99.90;;;;;;5064556;28;20040;-60
2023/06/11 03:00:17;;;;;;;9.70;8.73;;;17.50;99.90;;;;;;5066856;28;20033;-60
2023/06/11 03:02:43;;;;;;;11.30;10.25;;;17.50;99.90;;;;;;5046879;28;20117;-59
2023/06/11 03:05:09;;;;;;;10.95;9.75;;;17.50;99.90;;;;;;5065482;28;20040;-60
2023/06/11 03:07:34;;;;;;;15.43;10.02;;;17.50;99.90;;;;;;5059573;28;20072;-59
2023/06/11 03:10:00;;;;;;;11.98;10.05;;;17.40;99.90;;;;;;5060060;28;20082;-59
2023/06/11 03:12:26;;;;;;;11.75;10.10;;;17.40;99.90;;;;;;5065440;28;20056;-59
2023/06/11 03:14:52;;;;;;;12.50;9.30;;;17.40;99.90;;;;;;5036333;28;20036;-59
2023/06/11 03:17:18;;;;;;;13.10;10.43;;;17.40;99.90;;;;;;5049428;28;20044;-60
2023/06/11 03:19:43;;;;;;;12.70;10.77;;;17.40;99.90;;;;;;5032026;28;20052;-59
2023/06/11 03:22:09;;;;;;;13.48;10.02;;;17.40;99.90;;;;;;5067088;28;20064;-61
2023/06/11 03:24:35;;;;;;;12.40;10.23;;;17.40;99.90;;;;;;5080495;22;20749;-58
2023/06/11 03:27:01;;;;;;;12.05;10.25;;;17.30;99.90;;;;;;5084629;28;20101;-59
2023/06/11 03:29:26;;;;;;;11.38;9.80;;;17.30;99.90;;;;;;5083653;28;20093;-58
2023/06/11 03:31:52;;;;;;;11.18;9.23;;;17.30;99.90;;;;;;5087796;28;20040;-58
2023/06/11 03:34:18;;;;;;;13.18;9.73;;;17.30;99.90;;;;;;5085650;28;20224;-58
2023/06/11 03:36:43;;;;;;;11.27;10.07;;;17.30;99.90;;;;;;5082987;28;20466;-58
2023/06/11 03:39:10;;;;;;;11.05;9.85;;;17.30;99.90;;;;;;5077266;28;20693;-58
2023/06/11 03:41:36;;;;;;;12.60;10.25;;;17.30;99.90;;;;;;5086921;28;20048;-58
2023/06/11 03:44:01;;;;;;;12.35;9.95;;;17.30;99.90;;;;;;5084683;28;20111;-59
2023/06/11 03:46:27;;;;;;;11.48;9.57;;;17.30;99.90;;;;;;5086752;28;20036;-58
2023/06/11 03:48:53;;;;;;;12.05;10.07;;;17.30;99.90;;;;;;5090714;28;20432;-58
2023/06/11 03:51:18;;;;;;;12.60;10.88;;;17.30;99.90;;;;;;5086007;28;20039;-59
2023/06/11 03:53:44;;;;;;;11.25;10.10;;;17.30;99.90;;;;;;5079535;28;20115;-58
2023/06/11 03:56:10;;;;;;;12.68;9.98;;;17.30;99.90;;;;;;5087315;28;20653;-59
2023/06/11 03:58:36;;;;;;;10.90;9.60;;;17.30;99.90;;;;;;5078876;28;20468;-59
2023/06/11 04:01:01;;;;;;;12.68;10.95;;;17.30;99.90;;;;;;5087593;28;20029;-58
2023/06/11 04:03:27;;;;;;;11.68;10.45;;;17.30;99.90;;;;;;5090374;28;20032;-57
2023/06/11 04:05:53;;;;;;;12.80;11.10;;;17.30;99.90;;;;;;5085842;28;20028;-59
2023/06/11 04:08:18;;;;;;;12.02;10.65;;;17.30;99.90;;;;;;5085835;28;20050;-57
2023/06/11 04:10:44;;;;;;;15.18;11.02;;;17.30;99.90;;;;;;5087172;28;20056;-57
2023/06/11 04:13:10;;;;;;;12.07;10.48;;;17.30;99.90;;;;;;5081341;28;20040;-58
2023/06/11 04:15:36;;;;;;;12.07;10.52;;;17.40;99.90;;;;;;5090593;28;20266;-58
2023/06/11 04:18:02;;;;;;;11.45;10.35;;;17.40;99.90;;;;;;5079998;28;20033;-57
2023/06/11 04:20:28;;;;;;;13.57;10.25;;;17.40;99.90;;;;;;5085865;28;20032;-59
2023/06/11 04:22:54;;;;;;;13.07;10.55;;;17.40;99.90;;;;;;5080695;28;20562;-58
2023/06/11 04:25:20;;;;;;;11.98;10.60;;;17.40;99.90;;;;;;5087357;28;20052;-59
2023/06/11 04:27:47;;;;;;;11.80;10.55;;;17.40;99.90;;;;;;5082831;28;20040;-58
2023/06/11 04:30:14;;;;;;;12.13;11.02;;;17.50;99.90;;;;;;5080902;28;20047;-58
2023/06/11 04:32:40;;;;;;;12.27;11.05;;;17.50;99.90;;;;;;5062849;28;20037;-56
2023/06/11 04:35:06;;;;;;;14.82;11.20;;;17.50;99.90;;;;;;5091618;28;20097;-58
2023/06/11 04:37:38;;;;;;;13.38;11.77;;;17.50;99.90;;;;;;5067808;28;20028;-58
2023/06/11 04:40:10;;;;;;;15.35;11.10;;;17.50;99.90;;;;;;5076997;28;20546;-58
2023/06/11 04:42:40;;;;;;;14.20;10.93;;;17.50;99.90;;;;;;5081076;28;20040;-58
2023/06/11 04:45:10;;;;;;;15.60;11.77;;;17.60;99.90;;;;;;5076292;28;20090;-57
2023/06/11 04:47:36;;;;;;;12.27;10.98;;;17.60;99.90;;;;;;5081654;28;20509;-58
2023/06/11 04:50:05;;;;;;;11.95;10.75;;;17.60;99.90;;;;;;5084749;28;20036;-58
2023/06/11 04:52:38;;;;;;;13.90;11.57;;;17.60;99.90;;;;;;5060296;28;20405;-58
2023/06/11 04:55:09;;;;;;;14.52;11.93;;;17.70;99.90;;;;;;5102216;28;20059;-57
2023/06/11 04:57:36;;;;;;;12.30;10.02;;;17.70;99.90;;;;;;5076234;28;20213;-57
2023/06/11 05:00:07;;;;;;;17.27;12.02;;;17.70;99.90;;;;;;5079941;28;20066;-57
2023/06/11 05:02:44;;;;;;;13.48;12.20;;;17.80;99.90;;;;;;5085720;28;20449;-58
2023/06/11 05:05:10;;;;;;;12.15;10.90;;;17.90;99.90;;;;;;5084993;28;20096;-59
2023/06/11 05:07:36;;;;;;;13.40;12.00;;;17.90;99.90;;;;;;5089959;28;20024;-58
2023/06/11 05:10:02;;;;;;;14.85;11.00;;;18.00;99.90;;;;;;5078309;28;20384;-58
2023/06/11 05:12:28;;;;;;;12.73;11.48;;;18.00;99.90;;;;;;5055662;28;20043;-59
2023/06/11 05:14:58;;;;;;;12.85;11.20;;;18.10;99.90;;;;;;5076319;28;20550;-58
2023/06/11 05:17:24;;;;;;;14.98;11.02;;;18.20;99.90;;;;;;5082939;28;20051;-59
2023/06/11 05:19:51;;;;;;;13.75;11.05;;;18.30;99.90;;;;;;5072443;28;20043;-59
2023/06/11 05:22:16;;;;;;;14.00;11.98;;;18.30;99.90;;;;;;5084665;28;20390;-58
2023/06/11 05:24:43;;;;;;;17.33;11.82;;;18.40;99.90;;;;;;5082918;28;20048;-58
2023/06/11 05:27:08;;;;;;;13.65;12.15;;;18.40;99.90;;;;;;5083913;28;20028;-59
2023/06/11 05:29:34;;;;;;;12.43;11.23;;;18.50;99.90;;;;;;5090174;28;20038;-60
2023/06/11 05:32:00;;;;;;;13.57;11.70;;;18.60;99.90;;;;;;5071968;28;20043;-59
2023/06/11 05:34:26;;;;;;;13.95;12.48;;;18.70;99.90;;;;;;5065414;28;20498;-59
2023/06/11 05:36:52;;;;;;;13.25;11.95;;;18.80;99.90;;;;;;5094803;28;20067;-60
2023/06/11 05:39:19;;;;;;;12.13;10.93;;;18.90;99.90;;;;;;5068434;28;20032;-60
2023/06/11 05:41:45;;;;;;;12.77;11.65;;;19.00;99.90;;;;;;5088106;28;20044;-58
2023/06/11 05:44:10;;;;;;;14.05;11.93;;;19.10;99.90;;;;;;5086168;28;20123;-59
2023/06/11 05:46:36;;;;;;;12.98;11.65;;;19.20;99.90;;;;;;5082695;28;20043;-59
2023/06/11 05:49:02;;;;;;;16.60;11.40;;;19.20;99.90;;;;;;5077678;28;20537;-59
2023/06/11 05:51:27;;;;;;;15.10;12.10;;;19.30;99.90;;;;;;5084142;28;20043;-60
2023/06/11 05:53:53;;;;;;;12.57;11.38;;;19.40;99.90;;;;;;5082757;28;20059;-59
2023/06/11 05:56:19;;;;;;;14.93;12.00;;;19.50;99.90;;;;;;5082290;28;20426;-58
2023/06/11 05:58:44;;;;;;;12.10;10.90;;;19.60;99.90;;;;;;5083582;28;20043;-59
2023/06/11 06:01:12;;;;;;;13.45;12.10;;;19.60;99.90;;;;;;5085157;28;20130;-59
2023/06/11 06:03:38;;;;;;;13.93;12.27;;;19.70;99.90;;;;;;5087749;28;20482;-59
2023/06/11 06:06:03;;;;;;;13.57;12.18;;;19.80;99.90;;;;;;5085464;28;20043;-59
2023/06/11 06:08:30;;;;;;;12.63;11.40;;;19.90;99.90;;;;;;5082894;28;20123;-61
2023/06/11 06:10:57;;;;;;;13.55;12.25;;;19.90;99.90;;;;;;5079257;28;20036;-58
2023/06/11 06:13:25;;;;;;;13.68;10.80;;;20.10;99.90;;;;;;5094069;28;20521;-58
2023/06/11 06:15:52;;;;;;;12.82;11.52;;;20.20;99.90;;;;;;5086914;28;20040;-58
2023/06/11 06:18:18;;;;;;;14.00;11.52;;;20.20;99.90;;;;;;5086165;28;20127;-57
2023/06/11 06:20:46;;;;;;;12.75;11.45;;;20.30;99.90;;;;;;5088723;28;20036;-59
2023/06/11 06:23:12;;;;;;;12.93;11.55;;;20.40;99.90;;;;;;5088648;28;20082;-60
2023/06/11 06:25:38;;;;;;;13.02;11.73;;;20.50;99.90;;;;;;5085353;28;20036;-57
2023/06/11 06:28:08;;;;;;;11.85;10.65;;;20.60;99.90;;;;;;5074672;28;20540;-57
2023/06/11 06:30:34;;;;;;;13.63;11.27;;;20.70;99.90;;;;;;5082282;28;20531;-58
2023/06/11 06:33:00;;;;;;;12.57;10.65;;;20.80;99.90;;;;;;5078208;28;20047;-58
2023/06/11 06:35:26;;;;;;;13.18;11.15;;;20.90;99.90;;;;;;5085195;28;20124;-59
2023/06/11 06:37:51;;;;;;;12.02;10.90;;;21.00;99.90;;;;;;5081088;28;20111;-59
2023/06/11 06:40:17;;;;;;;13.05;10.90;;;21.10;99.90;;;;;;5087930;28;20051;-59
2023/06/11 06:42:43;;;;;;;11.52;10.50;;;21.10;99.90;;;;;;5078759;28;20119;-59
2023/06/11 06:45:09;;;;;;;12.68;11.05;;;21.30;99.90;;;;;;5086850;28;20275;-59
2023/06/11 06:47:35;;;;;;;12.13;10.75;;;21.40;99.90;;;;;;5080580;28;20669;-59
2023/06/11 06:50:01;;;;;;;12.18;10.98;;;21.40;99.90;;;;;;5070149;28;20047;-58
2023/06/11 06:52:27;;;;;;;13.00;11.63;;;21.50;99.90;;;;;;5084149;28;20118;-58
2023/06/11 06:54:53;;;;;;;12.38;11.10;;;21.60;99.90;;;;;;5076551;28;20190;-58
2023/06/11 06:57:19;;;;;;;11.88;10.05;;;21.60;99.90;;;;;;5077390;28;20614;-59
2023/06/11 06:59:45;;;;;;;10.80;9.82;;;21.70;99.90;;;;;;5088963;28;20646;-59
2023/06/11 07:02:10;;;;;;;13.93;11.07;;;21.80;99.90;;;;;;5083154;28;20036;-59
2023/06/11 07:04:36;;;;;;;11.52;10.32;;;21.90;99.90;;;;;;5085451;28;20062;-59
2023/06/11 07:07:02;;;;;;;10.57;9.57;;;22.00;99.90;;;;;;5083237;28;20036;-59
2023/06/11 07:09:28;;;;;;;13.65;10.95;;;22.10;99.90;;;;;;5074681;28;20282;-59
2023/06/11 07:11:54;;;;;;;10.98;9.88;;;22.20;99.90;;;;;;5069702;28;20119;-59
2023/06/11 07:14:20;;;;;;;11.90;10.70;;;22.30;99.90;;;;;;5079652;28;20115;-59
2023/06/11 07:16:46;;;;;;;11.18;9.98;;;22.40;99.90;;;;;;5089075;28;20028;-59
2023/06/11 07:19:12;;;;;;;10.85;9.85;;;22.50;99.90;;;;;;5085928;28;20039;-59
2023/06/11 07:21:37;;;;;;;13.07;9.65;;;22.60;99.90;;;;;;5082160;28;20406;-59
2023/06/11 07:24:05;;;;;;;11.80;10.30;;;22.70;99.90;;;;;;5085364;28;20040;-59
2023/06/11 07:26:31;;;;;;;12.02;9.48;;;22.80;99.90;;;;;;5080216;28;20042;-61
2023/06/11 07:28:58;;;;;;;11.80;10.15;;;22.90;99.90;;;;;;5077981;28;20098;-64
2023/06/11 07:31:24;;;;;;;12.65;11.07;;;23.00;99.90;;;;;;5081932;28;20039;-68
2023/06/11 07:33:49;;;;;;;10.40;9.40;;;23.10;99.90;;;;;;5083555;28;20040;-62
2023/06/11 07:36:16;;;;;;;10.23;9.32;;;23.10;99.90;;;;;;5080391;28;20131;-62
2023/06/11 07:38:43;;;;;;;11.63;10.32;;;23.20;99.90;;;;;;5081683;28;20032;-63
2023/06/11 07:41:13;;;;;;;12.10;10.80;;;23.30;99.90;;;;;;5081841;28;20071;-64
2023/06/11 07:43:39;;;;;;;13.20;10.88;;;23.30;99.90;;;;;;5086069;28;20411;-63
2023/06/11 07:46:05;;;;;;;12.23;9.48;;;23.40;99.90;;;;;;5075337;28;20044;-60
2023/06/11 07:48:31;;;;;;;14.40;10.55;;;23.50;99.90;;;;;;5084584;28;20040;-62
2023/06/11 07:50:57;;;;;;;12.05;10.82;;;23.50;99.90;;;;;;5083305;28;20064;-61
2023/06/11 07:53:23;;;;;;;10.75;9.68;;;23.50;99.90;;;;;;5068858;28;20126;-62
2023/06/11 07:55:56;;;;;;;11.07;9.98;;;23.60;99.90;;;;;;5085938;28;20036;-62
2023/06/11 07:58:23;;;;;;;10.27;9.20;;;23.70;99.90;;;;;;5078613;28;20117;-62
2023/06/11 08:00:48;;;;;;;10.65;9.57;;;23.80;99.90;;;;;;5079076;28;20056;-62
2023/06/11 08:03:16;;;;;;;10.27;9.18;;;23.90;99.90;;;;;;5077808;28;20416;-62
2023/06/11 08:05:42;;;;;;;11.50;10.40;;;24.00;99.90;;;;;;5080362;28;20056;-63
2023/06/11 08:08:08;;;;;;;13.20;9.85;;;24.20;99.90;;;;;;5079844;28;20037;-62
2023/06/11 08:10:33;;;;;;;12.52;9.38;;;24.30;99.80;;;;;;5081324;28;20040;-62
2023/06/11 08:12:59;;;;;;;9.25;8.23;;;24.30;99.70;;;;;;5062304;28;20114;-62
2023/06/11 08:15:25;;;;;;;10.55;9.40;;;24.40;99.90;;;;;;5081183;28;20035;-62
2023/06/11 08:17:51;;;;;;;9.98;8.98;;;24.60;99.80;;;;;;5081963;28;20039;-62
2023/06/11 08:20:17;;;;;;;13.75;9.05;;;24.70;99.90;;;;;;5084060;28;20725;-61
2023/06/11 08:22:43;;;;;;;10.00;8.98;;;24.80;99.30;;;;;;5081167;28;20028;-60
2023/06/11 08:25:10;;;;;;;9.55;8.65;;;24.90;99.30;;;;;;5064969;28;20467;-61
2023/06/11 08:27:36;;;;;;;10.27;8.98;;;24.90;98.50;;;;;;5082971;28;20127;-59
2023/06/11 08:30:03;;;;;;;9.48;8.20;;;25.00;98.50;;;;;;5080227;28;20107;-61
2023/06/11 08:32:29;;;;;;;9.60;8.68;;;25.10;98.50;;;;;;5085782;28;20056;-61
2023/06/11 08:34:54;;;;;;;9.30;8.40;;;25.20;98.40;;;;;;5084976;28;20516;-61
2023/06/11 08:37:21;;;;;;;9.88;8.38;;;25.30;98.00;;;;;;5086163;28;20070;-60
2023/06/11 08:39:46;;;;;;;10.55;8.95;;;25.30;98.10;;;;;;5082796;28;20109;-60
2023/06/11 08:42:12;;;;;;;9.70;8.68;;;25.40;97.80;;;;;;5063887;28;20390;-59
2023/06/11 08:44:38;;;;;;;9.27;8.38;;;25.50;97.90;;;;;;5085024;28;20044;-60
2023/06/11 08:47:04;;;;;;;12.15;9.10;;;25.60;97.90;;;;;;5078324;28;20043;-57
2023/06/11 08:49:31;;;;;;;11.10;8.77;;;25.80;97.80;;;;;;5087879;28;20035;-60
2023/06/11 08:52:02;;;;;;;12.10;8.02;;;25.90;98.00;;;;;;5085785;28;20048;-60
2023/06/11 08:54:28;;;;;;;9.55;8.63;;;26.00;98.10;;;;;;5090620;28;20131;-59
2023/06/11 08:56:54;;;;;;;9.43;8.13;;;26.10;97.60;;;;;;5081029;28;20537;-61
2023/06/11 08:59:20;;;;;;;10.43;8.55;;;26.20;97.30;;;;;;5078070;28;20044;-60
2023/06/11 09:01:51;;;;;;;9.98;8.57;;;26.20;97.20;;;;;;5068834;28;20512;-60
2023/06/11 09:04:17;;;;;;;9.25;8.45;;;26.30;96.80;;;;;;5076875;28;20048;-60
2023/06/11 09:06:50;;;;;;;10.20;7.95;;;26.30;96.60;;;;;;5068570;28;20051;-59
2023/06/11 09:09:16;;;;;;;11.32;9.40;;;26.40;96.70;;;;;;5089189;28;20050;-60
2023/06/11 09:11:44;;;;;;;10.27;8.52;;;26.50;96.20;;;;;;5083190;28;20052;-60
2023/06/11 09:14:10;;;;;;;9.55;7.82;;;26.50;96.50;;;;;;5077696;28;20040;-61
2023/06/11 09:16:43;;;;;;;8.93;8.02;;;26.60;96.50;;;;;;5073868;28;20055;-60
2023/06/11 09:19:18;;;;;;;9.10;8.25;;;26.70;96.50;;;;;;5086550;28;20043;-60
2023/06/11 09:21:52;;;;;;;8.98;7.93;;;26.90;96.50;;;;;;5063231;28;20075;-59
2023/06/11 09:24:19;;;;;;;9.80;8.48;;;26.90;96.50;;;;;;5086229;28;20036;-59
2023/06/11 09:26:50;;;;;;;8.95;7.75;;;27.10;96.20;;;;;;5082007;28;20520;-61
2023/06/11 09:29:16;;;;;;;11.50;9.13;;;27.10;95.10;;;;;;5088255;28;20440;-61
2023/06/11 09:31:42;;;;;;;9.10;8.02;;;27.10;94.90;;;;;;5091105;28;20055;-61
2023/06/11 09:34:12;;;;;;;9.80;8.45;;;27.00;95.20;;;;;;5075042;28;20062;-61
2023/06/11 09:36:37;;;;;;;8.90;7.90;;;27.10;95.10;;;;;;5081110;28;20495;-61
2023/06/11 09:39:03;;;;;;;9.57;8.70;;;27.20;95.50;;;;;;5090344;28;20079;-61
2023/06/11 09:41:30;;;;;;;9.25;7.80;;;27.30;95.40;;;;;;5091238;28;20043;-62
2023/06/11 09:43:56;;;;;;;9.02;8.23;;;27.40;95.40;;;;;;5055308;28;20044;-61
2023/06/11 09:46:23;;;;;;;9.85;8.45;;;27.50;94.90;;;;;;5090066;28;20050;-61
2023/06/11 09:48:49;;;;;;;9.15;8.18;;;27.60;95.00;;;;;;5082992;28;20050;-62
2023/06/11 09:51:21;;;;;;;9.57;8.43;;;27.70;94.40;;;;;;5098492;28;20044;-61
2023/06/11 09:53:50;;;;;;;10.13;7.90;;;27.70;94.60;;;;;;5088148;28;20076;-62
2023/06/11 09:56:18;;;;;;;11.48;8.02;;;27.90;94.60;;;;;;5085737;28;20172;-61
2023/06/11 09:58:47;;;;;;;9.32;8.43;;;28.10;94.60;;;;;;5084508;28;20047;-61
2023/06/11 10:01:12;;;;;;;8.45;7.65;;;28.10;93.80;;;;;;5091045;28;20040;-60
2023/06/11 10:03:39;;;;;;;10.38;7.90;;;28.00;93.50;;;;;;5067695;28;20037;-60
2023/06/11 10:06:09;;;;;;;10.52;8.20;;;28.10;94.00;;;;;;5094525;28;20055;-62
2023/06/11 10:08:36;;;;;;;10.80;7.88;;;28.20;93.60;;;;;;5076001;28;20109;-59
2023/06/11 10:11:03;;;;;;;9.82;7.82;;;28.40;93.60;;;;;;5070575;28;20048;-60
2023/06/11 10:13:37;;;;;;;8.85;7.95;;;28.50;93.10;;;;;;5097262;28;20040;-60
2023/06/11 10:16:06;;;;;;;8.45;7.55;;;28.50;93.20;;;;;;5086068;28;20051;-60
2023/06/11 10:18:32;;;;;;;8.07;7.25;;;28.40;92.10;;;;;;5085417;28;20049;-63
2023/06/11 10:21:00;;;;;;;8.50;7.05;;;28.60;93.10;;;;;;5071335;28;20115;-59
2023/06/11 10:23:37;;;;;;;8.48;7.65;;;28.70;92.20;;;;;;5079574;28;20040;-60
2023/06/11 10:26:03;;;;;;;7.93;6.78;;;28.80;92.40;;;;;;5082709;28;20043;-60
2023/06/11 10:28:43;;;;;;;7.65;6.95;;;28.90;93.20;;;;;;5083159;28;20036;-60
2023/06/11 10:31:09;;;;;;;7.95;7.10;;;29.00;92.20;;;;;;5080430;28;20048;-60
2023/06/11 10:33:45;;;;;;;9.48;7.07;;;29.10;93.00;;;;;;5096849;28;20407;-61
2023/06/11 10:36:33;;;;;;;7.32;6.63;;;29.30;92.10;;;;;;5085440;28;20050;-59
2023/06/11 10:39:27;;;;;;;7.30;6.60;;;29.60;91.90;;;;;;5085082;28;20575;-61
2023/06/11 10:42:03;;;;;;;7.45;6.50;;;29.40;91.20;;;;;;5088404;28;20054;-59
2023/06/11 10:44:32;;;;;;;8.75;6.80;;;29.60;91.70;;;;;;5074696;28;20032;-63
2023/06/11 10:47:00;;;;;;;8.85;6.20;;;29.70;91.40;;;;;;5081596;28;20090;-59
2023/06/11 10:49:27;;;;;;;7.38;6.25;;;29.80;90.50;;;;;;5067604;28;20535;-60
2023/06/11 10:51:54;;;;;;;7.55;6.28;;;29.80;90.60;;;;;;5087432;28;20107;-61
2023/06/11 10:54:25;;;;;;;6.72;6.13;;;29.80;90.40;;;;;;5085391;28;20068;-59
2023/06/11 10:56:51;;;;;;;7.88;5.93;;;29.90;89.40;;;;;;5089013;28;20032;-62
2023/06/11 10:59:18;;;;;;;6.88;5.07;;;29.80;89.10;;;;;;5093640;28;20119;-61
2023/06/11 11:01:43;;;;;;;7.25;5.97;;;29.80;87.10;;;;;;5087546;28;20080;-59
2023/06/11 11:04:09;;;;;;;6.18;5.50;;;29.90;85.30;;;;;;5086005;28;20431;-61
2023/06/11 11:06:36;;;;;;;5.93;5.32;;;29.80;85.80;;;;;;5063221;28;20036;-61
2023/06/11 11:09:02;;;;;;;8.55;6.03;;;29.90;86.10;;;;;;5085591;28;20051;-59
2023/06/11 11:11:28;;;;;;;7.35;6.13;;;30.10;85.90;;;;;;5088238;28;20051;-62
2023/06/11 11:13:57;;;;;;;6.57;5.80;;;30.10;84.80;;;;;;5078811;28;20514;-59
2023/06/11 11:16:23;;;;;;;6.95;5.22;;;30.10;85.70;;;;;;5087205;28;20040;-60
2023/06/11 11:18:50;;;;;;;6.78;5.53;;;30.20;86.20;;;;;;5063980;28;20040;-60
2023/06/11 11:21:17;;;;;;;9.00;5.80;;;30.20;84.40;;;;;;5089962;28;20115;-60
2023/06/11 11:23:48;;;;;;;6.35;5.38;;;30.20;83.20;;;;;;5079903;28;20046;-61
2023/06/11 11:26:14;;;;;;;6.03;5.32;;;30.10;82.00;;;;;;5089868;28;20495;-61
2023/06/11 11:28:41;;;;;;;6.55;5.43;;;30.00;82.20;;;;;;5091773;28;20042;-60
2023/06/11 11:31:07;;;;;;;6.80;5.13;;;30.10;82.00;;;;;;5077281;28;20106;-60
2023/06/11 11:33:36;;;;;;;5.93;5.00;;;30.20;81.30;;;;;;5071542;28;20047;-60
2023/06/11 11:36:04;;;;;;;7.72;5.20;;;30.30;81.20;;;;;;5067410;28;20035;-60
2023/06/11 11:38:35;;;;;;;8.57;5.50;;;30.50;80.00;;;;;;5051463;28;20035;-62
2023/06/11 11:41:01;;;;;;;7.13;5.38;;;30.60;80.10;;;;;;5086419;28;20515;-62
2023/06/11 11:43:36;;;;;;;5.85;4.97;;;30.50;78.80;;;;;;5071342;28;20043;-62
2023/06/11 11:46:12;;;;;;;7.55;5.43;;;30.50;79.50;;;;;;5087151;28;20067;-60
2023/06/11 11:48:39;;;;;;;6.93;5.07;;;30.40;78.20;;;;;;5083627;28;20146;-62
2023/06/11 11:51:06;;;;;;;5.88;5.35;;;30.50;78.60;;;;;;5087457;28;20054;-61
2023/06/11 11:53:32;;;;;;;8.35;4.78;;;30.60;81.10;;;;;;5054262;28;20067;-61
2023/06/11 11:55:57;;;;;;;7.68;5.47;;;30.80;77.90;;;;;;5082465;28;20070;-62
2023/06/11 11:58:23;;;;;;;5.80;5.20;;;30.70;77.70;;;;;;5070994;28;20032;-61
2023/06/11 12:00:56;;;;;;;5.20;4.70;;;30.50;75.40;;;;;;5090547;28;20194;-60
2023/06/11 12:03:22;;;;;;;5.78;5.18;;;30.50;75.30;;;;;;5073619;28;20364;-62
2023/06/11 12:06:08;;;;;;;5.53;5.03;;;30.40;75.20;;;;;;5086555;28;20036;-60
2023/06/11 12:08:35;;;;;;;5.25;4.72;;;30.40;76.00;;;;;;5065938;28;20044;-62
2023/06/11 12:11:03;;;;;;;6.60;5.63;;;30.60;77.00;;;;;;5083663;28;20055;-62
2023/06/11 12:13:29;;;;;;;5.38;4.80;;;30.90;76.50;;;;;;5088629;28;20494;-62
2023/06/11 12:15:55;;;;;;;6.57;5.80;;;31.10;75.50;;;;;;5089398;28;20087;-61
2023/06/11 12:18:21;;;;;;;6.75;5.55;;;31.40;76.90;;;;;;5084110;28;20036;-61
2023/06/11 12:20:47;;;;;;;6.40;5.70;;;31.60;76.20;;;;;;5081056;28;20072;-61
2023/06/11 12:23:13;;;;;;;7.45;5.80;;;31.40;75.80;;;;;;5066771;28;20605;-61
2023/06/11 12:25:40;;;;;;;6.60;5.95;;;31.30;76.70;;;;;;5082245;28;20097;-61
2023/06/11 12:28:05;;;;;;;7.28;5.55;;;31.30;75.10;;;;;;5080688;28;20044;-62
2023/06/11 12:30:34;;;;;;;6.22;5.63;;;31.40;76.80;;;;;;5089679;28;20889;-60
2023/06/11 12:33:00;;;;;;;7.65;5.82;;;31.40;73.90;;;;;;5086816;28;20039;-62
2023/06/11 12:35:28;;;;;;;6.82;5.45;;;31.20;70.90;;;;;;5073791;28;20032;-62